sensor_id;sensor_type;location;lat;lon;timestamp;P1;durP1;ratioP1;P2;durP2;ratioP2
24335;SDS011;33098;52.400;16.880;2023-02-01T00:01:06;8.70;;;1.90;;
24335;SDS011;33098;52.400;16.880;2023-02-01T00:03:34;11.60;;;2.10;;
24335;SDS011;33098;52.400;16.880;2023-02-01T00:06:04;6.40;;;1.80;;
24335;SDS011;33098;52.400;16.880;2023-02-01T00:08:31;5.60;;;1.80;;
24335;SDS011;33098;52.400;16.880;2023-02-01T00:11:02;7.00;;;2.20;;
24335;SDS011;33098;52.400;16.880;2023-02-01T00:13:31;7.70;;;2.20;;
24335;SDS011;33098;52.400;16.880;2023-02-01T00:16:19;9.70;;;2.30;;
24335;SDS011;33098;52.400;16.880;2023-02-01T00:18:58;14.10;;;2.40;;
24335;SDS011;33098;52.400;16.880;2023-02-01T00:21:27;8.50;;;1.90;;
24335;SDS011;33098;52.400;16.880;2023-02-01T00:23:54;8.10;;;2.00;;
24335;SDS011;33098;52.400;16.880;2023-02-01T00:26:26;9.00;;;2.10;;
24335;SDS011;33098;52.400;16.880;2023-02-01T00:29:10;9.80;;;2.20;;
24335;SDS011;33098;52.400;16.880;2023-02-01T00:31:39;12.10;;;2.00;;
24335;SDS011;33098;52.400;16.880;2023-02-01T00:34:06;9.10;;;2.40;;
24335;SDS011;33098;52.400;16.880;2023-02-01T00:36:34;8.90;;;2.10;;
24335;SDS011;33098;52.400;16.880;2023-02-01T00:39:03;6.60;;;1.80;;
24335;SDS011;33098;52.400;16.880;2023-02-01T00:41:29;9.90;;;2.50;;
24335;SDS011;33098;52.400;16.880;2023-02-01T00:44:01;6.00;;;2.20;;
24335;SDS011;33098;52.400;16.880;2023-02-01T00:46:30;6.40;;;1.90;;
24335;SDS011;33098;52.400;16.880;2023-02-01T00:48:57;6.80;;;1.90;;
24335;SDS011;33098;52.400;16.880;2023-02-01T00:51:26;11.90;;;2.40;;
24335;SDS011;33098;52.400;16.880;2023-02-01T00:53:55;8.50;;;2.20;;
24335;SDS011;33098;52.400;16.880;2023-02-01T00:56:26;7.20;;;2.10;;
24335;SDS011;33098;52.400;16.880;2023-02-01T00:58:55;10.70;;;2.50;;
24335;SDS011;33098;52.400;16.880;2023-02-01T01:01:26;6.90;;;1.90;;
24335;SDS011;33098;52.400;16.880;2023-02-01T01:03:58;9.30;;;1.70;;
24335;SDS011;33098;52.400;16.880;2023-02-01T01:06:26;8.40;;;2.10;;
24335;SDS011;33098;52.400;16.880;2023-02-01T01:08:55;5.50;;;1.80;;
24335;SDS011;33098;52.400;16.880;2023-02-01T01:11:25;10.20;;;2.20;;
24335;SDS011;33098;52.400;16.880;2023-02-01T01:13:54;4.40;;;1.50;;
24335;SDS011;33098;52.400;16.880;2023-02-01T01:16:23;6.10;;;2.10;;
24335;SDS011;33098;52.400;16.880;2023-02-01T01:18:55;9.50;;;2.00;;
24335;SDS011;33098;52.400;16.880;2023-02-01T01:21:22;6.80;;;1.90;;
24335;SDS011;33098;52.400;16.880;2023-02-01T01:23:49;5.90;;;2.10;;
24335;SDS011;33098;52.400;16.880;2023-02-01T01:26:20;8.20;;;2.20;;
24335;SDS011;33098;52.400;16.880;2023-02-01T01:28:49;8.50;;;2.10;;
24335;SDS011;33098;52.400;16.880;2023-02-01T01:31:17;6.00;;;2.00;;
24335;SDS011;33098;52.400;16.880;2023-02-01T01:33:53;8.20;;;1.70;;
24335;SDS011;33098;52.400;16.880;2023-02-01T01:36:22;8.60;;;2.50;;
24335;SDS011;33098;52.400;16.880;2023-02-01T01:38:49;9.20;;;1.90;;
24335;SDS011;33098;52.400;16.880;2023-02-01T01:41:25;4.00;;;1.60;;
24335;SDS011;33098;52.400;16.880;2023-02-01T01:43:57;5.10;;;1.80;;
24335;SDS011;33098;52.400;16.880;2023-02-01T01:46:28;9.40;;;2.20;;
24335;SDS011;33098;52.400;16.880;2023-02-01T01:49:05;8.50;;;2.40;;
24335;SDS011;33098;52.400;16.880;2023-02-01T01:51:38;6.60;;;1.80;;
24335;SDS011;33098;52.400;16.880;2023-02-01T01:54:17;5.60;;;1.90;;
24335;SDS011;33098;52.400;16.880;2023-02-01T01:56:49;4.70;;;1.30;;
24335;SDS011;33098;52.400;16.880;2023-02-01T01:59:21;5.10;;;1.90;;
24335;SDS011;33098;52.400;16.880;2023-02-01T02:01:50;9.50;;;1.80;;
24335;SDS011;33098;52.400;16.880;2023-02-01T02:04:19;7.20;;;2.10;;
24335;SDS011;33098;52.400;16.880;2023-02-01T02:07:05;5.90;;;1.80;;
24335;SDS011;33098;52.400;16.880;2023-02-01T02:09:40;5.80;;;1.50;;
24335;SDS011;33098;52.400;16.880;2023-02-01T02:12:09;7.40;;;1.60;;
24335;SDS011;33098;52.400;16.880;2023-02-01T02:14:36;7.90;;;2.00;;
24335;SDS011;33098;52.400;16.880;2023-02-01T02:31:54;6.30;;;1.90;;
24335;SDS011;33098;52.400;16.880;2023-02-01T02:34:47;8.80;;;1.90;;
24335;SDS011;33098;52.400;16.880;2023-02-01T02:37:26;8.80;;;1.90;;
24335;SDS011;33098;52.400;16.880;2023-02-01T02:40:15;8.70;;;1.90;;
24335;SDS011;33098;52.400;16.880;2023-02-01T02:46:24;6.20;;;1.70;;
24335;SDS011;33098;52.400;16.880;2023-02-01T02:49:23;8.10;;;2.40;;
24335;SDS011;33098;52.400;16.880;2023-02-01T02:52:16;7.20;;;1.60;;
24335;SDS011;33098;52.400;16.880;2023-02-01T02:55:05;8.80;;;1.80;;
24335;SDS011;33098;52.400;16.880;2023-02-01T02:57:38;8.40;;;2.10;;
24335;SDS011;33098;52.400;16.880;2023-02-01T03:00:28;9.60;;;2.10;;
24335;SDS011;33098;52.400;16.880;2023-02-01T03:03:16;8.00;;;1.50;;
24335;SDS011;33098;52.400;16.880;2023-02-01T03:06:01;5.20;;;1.70;;
24335;SDS011;33098;52.400;16.880;2023-02-01T03:08:30;6.10;;;2.00;;
24335;SDS011;33098;52.400;16.880;2023-02-01T03:11:02;6.80;;;1.60;;
24335;SDS011;33098;52.400;16.880;2023-02-01T03:13:48;7.00;;;1.90;;
24335;SDS011;33098;52.400;16.880;2023-02-01T03:16:18;9.00;;;2.40;;
24335;SDS011;33098;52.400;16.880;2023-02-01T03:21:43;10.20;;;2.00;;
24335;SDS011;33098;52.400;16.880;2023-02-01T03:24:18;8.60;;;2.10;;
24335;SDS011;33098;52.400;16.880;2023-02-01T03:27:20;6.60;;;1.80;;
24335;SDS011;33098;52.400;16.880;2023-02-01T03:29:56;10.10;;;2.50;;
24335;SDS011;33098;52.400;16.880;2023-02-01T03:32:33;5.90;;;1.50;;
24335;SDS011;33098;52.400;16.880;2023-02-01T03:35:24;9.00;;;2.00;;
24335;SDS011;33098;52.400;16.880;2023-02-01T03:37:53;9.00;;;2.10;;
24335;SDS011;33098;52.400;16.880;2023-02-01T03:40:25;10.20;;;2.40;;
24335;SDS011;33098;52.400;16.880;2023-02-01T03:42:54;7.70;;;1.90;;
24335;SDS011;33098;52.400;16.880;2023-02-01T03:45:28;9.10;;;2.40;;
24335;SDS011;33098;52.400;16.880;2023-02-01T03:48:03;9.80;;;2.30;;
24335;SDS011;33098;52.400;16.880;2023-02-01T03:50:31;7.60;;;1.90;;
24335;SDS011;33098;52.400;16.880;2023-02-01T03:53:05;6.80;;;1.90;;
24335;SDS011;33098;52.400;16.880;2023-02-01T03:55:36;10.00;;;2.30;;
24335;SDS011;33098;52.400;16.880;2023-02-01T03:58:11;9.90;;;2.60;;
24335;SDS011;33098;52.400;16.880;2023-02-01T04:00:40;5.80;;;2.00;;
24335;SDS011;33098;52.400;16.880;2023-02-01T04:03:12;7.90;;;2.00;;
24335;SDS011;33098;52.400;16.880;2023-02-01T04:05:39;8.80;;;2.00;;
24335;SDS011;33098;52.400;16.880;2023-02-01T04:08:08;8.20;;;2.10;;
24335;SDS011;33098;52.400;16.880;2023-02-01T04:10:35;6.10;;;2.10;;
24335;SDS011;33098;52.400;16.880;2023-02-01T04:13:02;6.20;;;1.60;;
24335;SDS011;33098;52.400;16.880;2023-02-01T04:15:29;6.00;;;1.80;;
24335;SDS011;33098;52.400;16.880;2023-02-01T04:17:56;8.50;;;2.20;;
24335;SDS011;33098;52.400;16.880;2023-02-01T04:20:23;10.80;;;2.30;;
24335;SDS011;33098;52.400;16.880;2023-02-01T04:22:50;4.20;;;1.70;;
24335;SDS011;33098;52.400;16.880;2023-02-01T04:25:16;7.70;;;1.90;;
24335;SDS011;33098;52.400;16.880;2023-02-01T04:27:47;6.60;;;1.70;;
24335;SDS011;33098;52.400;16.880;2023-02-01T04:30:14;10.50;;;2.00;;
24335;SDS011;33098;52.400;16.880;2023-02-01T04:32:41;6.80;;;2.00;;
24335;SDS011;33098;52.400;16.880;2023-02-01T04:35:08;7.80;;;2.00;;
24335;SDS011;33098;52.400;16.880;2023-02-01T04:37:35;7.50;;;1.80;;
24335;SDS011;33098;52.400;16.880;2023-02-01T04:40:02;6.50;;;1.70;;
24335;SDS011;33098;52.400;16.880;2023-02-01T04:42:30;8.90;;;1.90;;
24335;SDS011;33098;52.400;16.880;2023-02-01T04:44:57;5.20;;;1.90;;
24335;SDS011;33098;52.400;16.880;2023-02-01T04:47:23;8.30;;;1.90;;
24335;SDS011;33098;52.400;16.880;2023-02-01T04:49:50;7.20;;;1.90;;
24335;SDS011;33098;52.400;16.880;2023-02-01T04:52:23;6.50;;;1.70;;
24335;SDS011;33098;52.400;16.880;2023-02-01T04:54:50;11.30;;;2.30;;
24335;SDS011;33098;52.400;16.880;2023-02-01T04:57:16;4.50;;;1.30;;
24335;SDS011;33098;52.400;16.880;2023-02-01T04:59:43;9.30;;;2.00;;
24335;SDS011;33098;52.400;16.880;2023-02-01T05:02:12;3.90;;;1.60;;
24335;SDS011;33098;52.400;16.880;2023-02-01T05:04:45;7.60;;;2.00;;
24335;SDS011;33098;52.400;16.880;2023-02-01T05:09:44;6.30;;;2.00;;
24335;SDS011;33098;52.400;16.880;2023-02-01T05:12:11;8.30;;;1.90;;
24335;SDS011;33098;52.400;16.880;2023-02-01T05:14:59;6.00;;;1.80;;
24335;SDS011;33098;52.400;16.880;2023-02-01T05:17:26;12.00;;;2.10;;
24335;SDS011;33098;52.400;16.880;2023-02-01T05:19:56;9.10;;;2.00;;
24335;SDS011;33098;52.400;16.880;2023-02-01T05:22:26;9.40;;;2.10;;
24335;SDS011;33098;52.400;16.880;2023-02-01T05:24:52;7.80;;;1.70;;
24335;SDS011;33098;52.400;16.880;2023-02-01T05:27:19;7.60;;;2.20;;
24335;SDS011;33098;52.400;16.880;2023-02-01T05:29:46;6.10;;;1.90;;
24335;SDS011;33098;52.400;16.880;2023-02-01T05:32:13;4.00;;;1.70;;
24335;SDS011;33098;52.400;16.880;2023-02-01T05:34:39;8.60;;;2.20;;
24335;SDS011;33098;52.400;16.880;2023-02-01T05:37:06;7.20;;;2.00;;
24335;SDS011;33098;52.400;16.880;2023-02-01T05:39:38;9.60;;;2.40;;
24335;SDS011;33098;52.400;16.880;2023-02-01T05:42:05;8.60;;;2.40;;
24335;SDS011;33098;52.400;16.880;2023-02-01T05:44:31;9.90;;;2.30;;
24335;SDS011;33098;52.400;16.880;2023-02-01T05:46:58;4.40;;;1.40;;
24335;SDS011;33098;52.400;16.880;2023-02-01T05:49:28;11.00;;;2.10;;
24335;SDS011;33098;52.400;16.880;2023-02-01T05:51:54;6.10;;;1.90;;
24335;SDS011;33098;52.400;16.880;2023-02-01T05:54:21;9.50;;;2.20;;
24335;SDS011;33098;52.400;16.880;2023-02-01T05:56:50;7.90;;;2.00;;
24335;SDS011;33098;52.400;16.880;2023-02-01T05:59:16;8.70;;;2.20;;
24335;SDS011;33098;52.400;16.880;2023-02-01T06:01:43;8.80;;;2.30;;
24335;SDS011;33098;52.400;16.880;2023-02-01T06:04:10;8.80;;;2.20;;
24335;SDS011;33098;52.400;16.880;2023-02-01T06:06:37;11.10;;;2.10;;
24335;SDS011;33098;52.400;16.880;2023-02-01T06:09:04;7.00;;;2.00;;
24335;SDS011;33098;52.400;16.880;2023-02-01T06:11:34;7.40;;;2.10;;
24335;SDS011;33098;52.400;16.880;2023-02-01T06:14:01;8.60;;;2.00;;
24335;SDS011;33098;52.400;16.880;2023-02-01T06:16:28;8.80;;;2.30;;
24335;SDS011;33098;52.400;16.880;2023-02-01T06:18:55;10.50;;;2.20;;
24335;SDS011;33098;52.400;16.880;2023-02-01T06:21:22;11.00;;;2.10;;
24335;SDS011;33098;52.400;16.880;2023-02-01T06:23:54;7.40;;;2.70;;
24335;SDS011;33098;52.400;16.880;2023-02-01T06:26:23;12.20;;;2.90;;
24335;SDS011;33098;52.400;16.880;2023-02-01T06:28:50;11.30;;;2.80;;
24335;SDS011;33098;52.400;16.880;2023-02-01T06:31:20;11.00;;;2.60;;
24335;SDS011;33098;52.400;16.880;2023-02-01T06:33:52;8.70;;;2.20;;
24335;SDS011;33098;52.400;16.880;2023-02-01T06:36:20;7.70;;;2.30;;
24335;SDS011;33098;52.400;16.880;2023-02-01T06:38:47;10.90;;;2.60;;
24335;SDS011;33098;52.400;16.880;2023-02-01T06:41:17;10.20;;;2.30;;
24335;SDS011;33098;52.400;16.880;2023-02-01T06:43:46;11.80;;;3.10;;
24335;SDS011;33098;52.400;16.880;2023-02-01T06:46:14;9.90;;;2.60;;
24335;SDS011;33098;52.400;16.880;2023-02-01T06:48:43;12.80;;;2.90;;
24335;SDS011;33098;52.400;16.880;2023-02-01T06:51:18;11.50;;;2.50;;
24335;SDS011;33098;52.400;16.880;2023-02-01T06:53:52;12.80;;;3.10;;
24335;SDS011;33098;52.400;16.880;2023-02-01T06:56:19;9.00;;;2.80;;
24335;SDS011;33098;52.400;16.880;2023-02-01T06:58:47;8.90;;;2.70;;
24335;SDS011;33098;52.400;16.880;2023-02-01T07:01:15;7.90;;;2.30;;
24335;SDS011;33098;52.400;16.880;2023-02-01T07:03:49;10.90;;;3.30;;
24335;SDS011;33098;52.400;16.880;2023-02-01T07:06:20;10.70;;;3.40;;
24335;SDS011;33098;52.400;16.880;2023-02-01T07:08:48;9.80;;;2.80;;
24335;SDS011;33098;52.400;16.880;2023-02-01T07:11:19;13.50;;;3.00;;
24335;SDS011;33098;52.400;16.880;2023-02-01T07:13:47;13.90;;;2.80;;
24335;SDS011;33098;52.400;16.880;2023-02-01T07:16:16;14.10;;;3.10;;
24335;SDS011;33098;52.400;16.880;2023-02-01T07:21:12;14.40;;;3.30;;
24335;SDS011;33098;52.400;16.880;2023-02-01T07:23:40;11.50;;;3.20;;
24335;SDS011;33098;52.400;16.880;2023-02-01T07:26:09;12.00;;;2.70;;
24335;SDS011;33098;52.400;16.880;2023-02-01T07:28:42;9.10;;;2.70;;
24335;SDS011;33098;52.400;16.880;2023-02-01T07:31:11;13.40;;;3.10;;
24335;SDS011;33098;52.400;16.880;2023-02-01T07:33:44;11.60;;;3.20;;
24335;SDS011;33098;52.400;16.880;2023-02-01T07:36:13;9.90;;;3.30;;
24335;SDS011;33098;52.400;16.880;2023-02-01T07:38:42;10.10;;;2.80;;
24335;SDS011;33098;52.400;16.880;2023-02-01T07:41:09;8.30;;;2.60;;
24335;SDS011;33098;52.400;16.880;2023-02-01T07:43:37;10.50;;;3.10;;
24335;SDS011;33098;52.400;16.880;2023-02-01T07:46:04;10.50;;;3.20;;
24335;SDS011;33098;52.400;16.880;2023-02-01T07:48:32;12.80;;;3.40;;
24335;SDS011;33098;52.400;16.880;2023-02-01T07:51:02;12.50;;;3.20;;
24335;SDS011;33098;52.400;16.880;2023-02-01T07:53:33;9.30;;;3.00;;
24335;SDS011;33098;52.400;16.880;2023-02-01T07:56:01;11.00;;;3.10;;
24335;SDS011;33098;52.400;16.880;2023-02-01T07:58:29;10.50;;;3.70;;
24335;SDS011;33098;52.400;16.880;2023-02-01T08:00:57;12.30;;;4.10;;
24335;SDS011;33098;52.400;16.880;2023-02-01T08:03:43;13.00;;;3.40;;
24335;SDS011;33098;52.400;16.880;2023-02-01T08:06:11;11.80;;;3.20;;
24335;SDS011;33098;52.400;16.880;2023-02-01T08:11:12;9.80;;;3.00;;
24335;SDS011;33098;52.400;16.880;2023-02-01T08:13:40;12.70;;;3.20;;
24335;SDS011;33098;52.400;16.880;2023-02-01T08:16:14;11.40;;;3.20;;
24335;SDS011;33098;52.400;16.880;2023-02-01T08:18:43;12.90;;;3.00;;
24335;SDS011;33098;52.400;16.880;2023-02-01T08:21:11;12.50;;;2.80;;
24335;SDS011;33098;52.400;16.880;2023-02-01T08:23:42;8.90;;;2.90;;
24335;SDS011;33098;52.400;16.880;2023-02-01T08:26:11;9.10;;;2.90;;
24335;SDS011;33098;52.400;16.880;2023-02-01T08:28:42;11.40;;;3.30;;
24335;SDS011;33098;52.400;16.880;2023-02-01T08:31:13;13.10;;;3.70;;
24335;SDS011;33098;52.400;16.880;2023-02-01T08:33:53;9.50;;;2.90;;
24335;SDS011;33098;52.400;16.880;2023-02-01T08:36:27;10.90;;;3.10;;
24335;SDS011;33098;52.400;16.880;2023-02-01T08:41:28;14.80;;;3.20;;
24335;SDS011;33098;52.400;16.880;2023-02-01T08:43:58;14.10;;;3.50;;
24335;SDS011;33098;52.400;16.880;2023-02-01T08:46:28;13.10;;;3.80;;
24335;SDS011;33098;52.400;16.880;2023-02-01T08:48:56;12.40;;;3.20;;
24335;SDS011;33098;52.400;16.880;2023-02-01T08:51:26;8.70;;;2.90;;
24335;SDS011;33098;52.400;16.880;2023-02-01T08:53:53;11.20;;;3.40;;
24335;SDS011;33098;52.400;16.880;2023-02-01T08:56:20;9.70;;;3.50;;
24335;SDS011;33098;52.400;16.880;2023-02-01T08:58:47;12.50;;;3.30;;
24335;SDS011;33098;52.400;16.880;2023-02-01T09:01:17;10.70;;;3.50;;
24335;SDS011;33098;52.400;16.880;2023-02-01T09:03:44;14.70;;;3.90;;
24335;SDS011;33098;52.400;16.880;2023-02-01T09:06:13;12.20;;;3.10;;
24335;SDS011;33098;52.400;16.880;2023-02-01T09:08:41;11.20;;;3.10;;
24335;SDS011;33098;52.400;16.880;2023-02-01T09:11:12;10.40;;;2.90;;
24335;SDS011;33098;52.400;16.880;2023-02-01T09:13:41;11.60;;;3.10;;
24335;SDS011;33098;52.400;16.880;2023-02-01T09:16:09;10.70;;;2.60;;
24335;SDS011;33098;52.400;16.880;2023-02-01T09:18:44;8.10;;;3.10;;
24335;SDS011;33098;52.400;16.880;2023-02-01T09:21:11;10.00;;;2.90;;
24335;SDS011;33098;52.400;16.880;2023-02-01T09:23:39;8.40;;;2.70;;
24335;SDS011;33098;52.400;16.880;2023-02-01T09:26:16;9.90;;;2.50;;
24335;SDS011;33098;52.400;16.880;2023-02-01T09:28:46;8.50;;;2.50;;
24335;SDS011;33098;52.400;16.880;2023-02-01T09:31:12;8.10;;;2.30;;
24335;SDS011;33098;52.400;16.880;2023-02-01T09:33:40;6.80;;;3.10;;
24335;SDS011;33098;52.400;16.880;2023-02-01T09:36:17;6.30;;;2.50;;
24335;SDS011;33098;52.400;16.880;2023-02-01T09:38:51;11.10;;;3.20;;
24335;SDS011;33098;52.400;16.880;2023-02-01T09:44:21;8.00;;;2.70;;
24335;SDS011;33098;52.400;16.880;2023-02-01T09:46:58;17.20;;;6.80;;
24335;SDS011;33098;52.400;16.880;2023-02-01T09:49:30;9.20;;;3.30;;
24335;SDS011;33098;52.400;16.880;2023-02-01T09:52:10;5.90;;;2.20;;
24335;SDS011;33098;52.400;16.880;2023-02-01T09:54:42;5.90;;;2.20;;
24335;SDS011;33098;52.400;16.880;2023-02-01T09:57:19;6.00;;;2.40;;
24335;SDS011;33098;52.400;16.880;2023-02-01T10:00:03;7.20;;;2.50;;
24335;SDS011;33098;52.400;16.880;2023-02-01T10:02:42;9.90;;;3.30;;
24335;SDS011;33098;52.400;16.880;2023-02-01T10:05:12;10.30;;;2.80;;
24335;SDS011;33098;52.400;16.880;2023-02-01T10:08:01;7.00;;;2.40;;
24335;SDS011;33098;52.400;16.880;2023-02-01T10:10:46;8.50;;;2.90;;
24335;SDS011;33098;52.400;16.880;2023-02-01T10:16:38;9.80;;;3.00;;
24335;SDS011;33098;52.400;16.880;2023-02-01T10:22:39;6.70;;;2.30;;
24335;SDS011;33098;52.400;16.880;2023-02-01T10:28:19;10.20;;;3.30;;
24335;SDS011;33098;52.400;16.880;2023-02-01T10:30:48;9.50;;;3.30;;
24335;SDS011;33098;52.400;16.880;2023-02-01T10:33:36;10.50;;;4.30;;
24335;SDS011;33098;52.400;16.880;2023-02-01T10:36:31;6.20;;;2.80;;
24335;SDS011;33098;52.400;16.880;2023-02-01T10:39:03;9.40;;;3.00;;
24335;SDS011;33098;52.400;16.880;2023-02-01T10:41:34;7.20;;;2.90;;
24335;SDS011;33098;52.400;16.880;2023-02-01T10:44:07;8.70;;;3.40;;
24335;SDS011;33098;52.400;16.880;2023-02-01T10:46:40;6.80;;;3.20;;
24335;SDS011;33098;52.400;16.880;2023-02-01T10:49:16;12.80;;;3.30;;
24335;SDS011;33098;52.400;16.880;2023-02-01T10:51:54;10.40;;;3.90;;
24335;SDS011;33098;52.400;16.880;2023-02-01T10:54:41;13.20;;;5.60;;
24335;SDS011;33098;52.400;16.880;2023-02-01T10:57:19;12.00;;;4.80;;
24335;SDS011;33098;52.400;16.880;2023-02-01T10:59:48;9.60;;;3.60;;
24335;SDS011;33098;52.400;16.880;2023-02-01T11:02:25;9.60;;;3.90;;
24335;SDS011;33098;52.400;16.880;2023-02-01T11:05:02;9.20;;;3.10;;
24335;SDS011;33098;52.400;16.880;2023-02-01T11:07:32;9.80;;;3.60;;
24335;SDS011;33098;52.400;16.880;2023-02-01T11:10:03;7.90;;;3.10;;
24335;SDS011;33098;52.400;16.880;2023-02-01T11:17:51;7.50;;;3.90;;
24335;SDS011;33098;52.400;16.880;2023-02-01T11:22:58;5.90;;;2.70;;
24335;SDS011;33098;52.400;16.880;2023-02-01T11:25:25;5.90;;;2.90;;
24335;SDS011;33098;52.400;16.880;2023-02-01T11:27:54;8.30;;;2.80;;
24335;SDS011;33098;52.400;16.880;2023-02-01T11:30:29;7.90;;;2.60;;
24335;SDS011;33098;52.400;16.880;2023-02-01T11:33:04;6.60;;;2.70;;
24335;SDS011;33098;52.400;16.880;2023-02-01T11:35:38;7.70;;;3.20;;
24335;SDS011;33098;52.400;16.880;2023-02-01T11:38:20;7.80;;;3.20;;
24335;SDS011;33098;52.400;16.880;2023-02-01T11:40:52;6.50;;;2.90;;
24335;SDS011;33098;52.400;16.880;2023-02-01T11:43:24;7.60;;;2.60;;
24335;SDS011;33098;52.400;16.880;2023-02-01T11:45:58;5.30;;;2.60;;
24335;SDS011;33098;52.400;16.880;2023-02-01T11:48:28;6.10;;;2.40;;
24335;SDS011;33098;52.400;16.880;2023-02-01T11:51:00;21.30;;;4.00;;
24335;SDS011;33098;52.400;16.880;2023-02-01T11:53:57;7.30;;;3.00;;
24335;SDS011;33098;52.400;16.880;2023-02-01T11:59:25;7.10;;;3.00;;
24335;SDS011;33098;52.400;16.880;2023-02-01T12:02:31;7.80;;;3.10;;
24335;SDS011;33098;52.400;16.880;2023-02-01T12:05:03;7.70;;;2.70;;
24335;SDS011;33098;52.400;16.880;2023-02-01T12:13:33;4.80;;;2.30;;
24335;SDS011;33098;52.400;16.880;2023-02-01T12:16:38;6.80;;;2.80;;
24335;SDS011;33098;52.400;16.880;2023-02-01T12:36:12;4.70;;;2.00;;
24335;SDS011;33098;52.400;16.880;2023-02-01T12:38:53;6.50;;;1.90;;
24335;SDS011;33098;52.400;16.880;2023-02-01T12:41:32;7.30;;;2.60;;
24335;SDS011;33098;52.400;16.880;2023-02-01T12:44:21;3.80;;;1.90;;
24335;SDS011;33098;52.400;16.880;2023-02-01T12:47:06;6.40;;;2.50;;
24335;SDS011;33098;52.400;16.880;2023-02-01T12:49:51;4.60;;;1.90;;
24335;SDS011;33098;52.400;16.880;2023-02-01T12:52:23;5.50;;;2.30;;
24335;SDS011;33098;52.400;16.880;2023-02-01T12:55:05;3.60;;;2.10;;
24335;SDS011;33098;52.400;16.880;2023-02-01T12:57:36;4.40;;;2.10;;
24335;SDS011;33098;52.400;16.880;2023-02-01T13:00:22;4.90;;;2.00;;
24335;SDS011;33098;52.400;16.880;2023-02-01T13:03:00;6.40;;;2.30;;
24335;SDS011;33098;52.400;16.880;2023-02-01T13:08:20;3.90;;;1.90;;
24335;SDS011;33098;52.400;16.880;2023-02-01T13:10:55;4.70;;;2.10;;
24335;SDS011;33098;52.400;16.880;2023-02-01T13:16:35;11.40;;;4.50;;
24335;SDS011;33098;52.400;16.880;2023-02-01T13:21:46;5.60;;;2.60;;
24335;SDS011;33098;52.400;16.880;2023-02-01T13:27:11;6.90;;;1.90;;
24335;SDS011;33098;52.400;16.880;2023-02-01T13:30:01;4.60;;;2.00;;
24335;SDS011;33098;52.400;16.880;2023-02-01T13:38:09;6.70;;;1.90;;
24335;SDS011;33098;52.400;16.880;2023-02-01T13:43:27;5.30;;;1.90;;
24335;SDS011;33098;52.400;16.880;2023-02-01T13:46:04;5.60;;;2.00;;
24335;SDS011;33098;52.400;16.880;2023-02-01T13:48:41;5.80;;;2.00;;
24335;SDS011;33098;52.400;16.880;2023-02-01T13:51:42;4.80;;;1.70;;
24335;SDS011;33098;52.400;16.880;2023-02-01T13:57:01;5.10;;;1.70;;
24335;SDS011;33098;52.400;16.880;2023-02-01T13:59:48;7.00;;;2.20;;
24335;SDS011;33098;52.400;16.880;2023-02-01T14:05:09;5.80;;;1.70;;
24335;SDS011;33098;52.400;16.880;2023-02-01T14:16:12;8.30;;;2.50;;
24335;SDS011;33098;52.400;16.880;2023-02-01T14:21:33;7.40;;;2.00;;
24335;SDS011;33098;52.400;16.880;2023-02-01T14:50:40;9.40;;;2.60;;
24335;SDS011;33098;52.400;16.880;2023-02-01T15:00:58;6.20;;;1.90;;
24335;SDS011;33098;52.400;16.880;2023-02-01T15:07:07;5.90;;;1.90;;
24335;SDS011;33098;52.400;16.880;2023-02-01T15:12:01;7.10;;;2.90;;
24335;SDS011;33098;52.400;16.880;2023-02-01T15:14:33;7.00;;;3.10;;
24335;SDS011;33098;52.400;16.880;2023-02-01T15:17:02;11.50;;;3.70;;
24335;SDS011;33098;52.400;16.880;2023-02-01T15:20:00;11.30;;;3.40;;
24335;SDS011;33098;52.400;16.880;2023-02-01T15:22:29;9.30;;;3.20;;
24335;SDS011;33098;52.400;16.880;2023-02-01T15:25:00;9.60;;;4.00;;
24335;SDS011;33098;52.400;16.880;2023-02-01T15:27:30;16.60;;;8.10;;
24335;SDS011;33098;52.400;16.880;2023-02-01T15:30:15;7.20;;;3.60;;
24335;SDS011;33098;52.400;16.880;2023-02-01T15:32:49;7.10;;;3.80;;
24335;SDS011;33098;52.400;16.880;2023-02-01T15:35:35;9.40;;;3.90;;
24335;SDS011;33098;52.400;16.880;2023-02-01T15:41:02;10.00;;;5.10;;
24335;SDS011;33098;52.400;16.880;2023-02-01T15:43:39;11.20;;;5.10;;
24335;SDS011;33098;52.400;16.880;2023-02-01T15:46:08;13.50;;;5.80;;
24335;SDS011;33098;52.400;16.880;2023-02-01T15:48:40;11.70;;;5.30;;
24335;SDS011;33098;52.400;16.880;2023-02-01T15:51:18;10.80;;;4.70;;
24335;SDS011;33098;52.400;16.880;2023-02-01T15:54:01;7.50;;;3.60;;
24335;SDS011;33098;52.400;16.880;2023-02-01T15:56:36;6.00;;;3.40;;
24335;SDS011;33098;52.400;16.880;2023-02-01T15:59:12;7.70;;;2.50;;
24335;SDS011;33098;52.400;16.880;2023-02-01T16:01:44;6.50;;;2.30;;
24335;SDS011;33098;52.400;16.880;2023-02-01T16:04:15;6.10;;;2.70;;
24335;SDS011;33098;52.400;16.880;2023-02-01T16:06:51;4.80;;;2.20;;
24335;SDS011;33098;52.400;16.880;2023-02-01T16:09:34;5.90;;;2.40;;
24335;SDS011;33098;52.400;16.880;2023-02-01T16:15:02;5.60;;;2.80;;
24335;SDS011;33098;52.400;16.880;2023-02-01T16:17:30;7.00;;;2.80;;
24335;SDS011;33098;52.400;16.880;2023-02-01T16:20:01;4.70;;;2.20;;
24335;SDS011;33098;52.400;16.880;2023-02-01T16:22:29;6.70;;;2.60;;
24335;SDS011;33098;52.400;16.880;2023-02-01T16:24:59;6.20;;;2.60;;
24335;SDS011;33098;52.400;16.880;2023-02-01T16:27:26;6.90;;;2.80;;
24335;SDS011;33098;52.400;16.880;2023-02-01T16:29:56;6.80;;;3.00;;
24335;SDS011;33098;52.400;16.880;2023-02-01T16:32:26;9.00;;;3.90;;
24335;SDS011;33098;52.400;16.880;2023-02-01T16:34:57;7.90;;;3.50;;
24335;SDS011;33098;52.400;16.880;2023-02-01T16:37:25;9.20;;;3.60;;
24335;SDS011;33098;52.400;16.880;2023-02-01T16:39:57;7.30;;;4.10;;
24335;SDS011;33098;52.400;16.880;2023-02-01T16:42:27;10.90;;;4.70;;
24335;SDS011;33098;52.400;16.880;2023-02-01T16:44:57;12.40;;;5.60;;
24335;SDS011;33098;52.400;16.880;2023-02-01T16:47:31;15.20;;;6.70;;
24335;SDS011;33098;52.400;16.880;2023-02-01T16:49:58;21.80;;;7.70;;
24335;SDS011;33098;52.400;16.880;2023-02-01T16:52:25;13.70;;;6.40;;
24335;SDS011;33098;52.400;16.880;2023-02-01T16:54:53;14.50;;;6.60;;
24335;SDS011;33098;52.400;16.880;2023-02-01T16:57:31;11.60;;;5.90;;
24335;SDS011;33098;52.400;16.880;2023-02-01T17:00:02;10.80;;;6.00;;
24335;SDS011;33098;52.400;16.880;2023-02-01T17:02:30;11.90;;;6.30;;
24335;SDS011;33098;52.400;16.880;2023-02-01T17:04:58;12.00;;;5.60;;
24335;SDS011;33098;52.400;16.880;2023-02-01T17:07:25;12.50;;;5.80;;
24335;SDS011;33098;52.400;16.880;2023-02-01T17:10:02;12.90;;;5.50;;
24335;SDS011;33098;52.400;16.880;2023-02-01T17:12:32;9.00;;;4.60;;
24335;SDS011;33098;52.400;16.880;2023-02-01T17:17:35;7.60;;;4.00;;
24335;SDS011;33098;52.400;16.880;2023-02-01T17:20:30;10.50;;;5.00;;
24335;SDS011;33098;52.400;16.880;2023-02-01T17:23:01;8.30;;;4.50;;
24335;SDS011;33098;52.400;16.880;2023-02-01T17:25:28;9.40;;;4.70;;
24335;SDS011;33098;52.400;16.880;2023-02-01T17:27:59;9.40;;;4.10;;
24335;SDS011;33098;52.400;16.880;2023-02-01T17:30:26;7.50;;;3.10;;
24335;SDS011;33098;52.400;16.880;2023-02-01T17:32:54;8.60;;;3.80;;
24335;SDS011;33098;52.400;16.880;2023-02-01T17:35:23;6.10;;;2.90;;
24335;SDS011;33098;52.400;16.880;2023-02-01T17:40:19;8.10;;;2.60;;
24335;SDS011;33098;52.400;16.880;2023-02-01T17:42:48;6.50;;;2.80;;
24335;SDS011;33098;52.400;16.880;2023-02-01T17:45:53;8.10;;;2.70;;
24335;SDS011;33098;52.400;16.880;2023-02-01T17:48:18;8.00;;;3.30;;